Seattle, Washington
Traffic Map
Current Weather Conditions
Seattle, Washington
Clear
Clear
70°
Feels Like: 70°
Wind Chill: 70° Ceiling: Unl
Heat Index: 70° Visibility: 10mi
Dew Point: 55° Wind: 5mph
Humidity: 59% Direction: 320° (NW)
Pressure: 30.09in Gusts: 0mph
Raw Report DataKBFI 191753Z 32004KT 10SM CLR 21/13 A3009 RMK AO2 SLP188 T02110128 10211 20150 56005
Traffic Incident Summary
Active as of:
Severity:
Category:
InformationThere was an issue retrieving the traffic information for this location. Please try a different location or try again shortly.
Advertisements